createdAt,value
2019-03-28T00:00:40.794Z,102448.80
2019-03-28T00:03:27.410Z,102453.16
2019-03-28T00:05:55.014Z,102452.69
2019-03-28T00:08:22.283Z,102450.54
2019-03-28T00:10:49.873Z,102456.67
2019-03-28T00:13:17.301Z,102445.34
2019-03-28T00:15:44.887Z,102444.88
2019-03-28T00:18:12.747Z,102444.08
2019-03-28T00:20:40.492Z,102446.70
2019-03-28T00:23:27.472Z,102444.55
2019-03-28T00:25:55.392Z,102445.39
2019-03-28T00:28:22.983Z,102440.56
2019-03-28T00:30:50.751Z,102439.23
2019-03-28T00:33:18.396Z,102440.59
2019-03-28T00:35:45.810Z,102441.88
2019-03-28T00:38:13.328Z,102438.33
2019-03-28T00:40:40.857Z,102435.80
2019-03-28T00:43:08.137Z,102437.95
2019-03-28T00:45:35.798Z,102436.67
2019-03-28T00:48:03.517Z,102440.58
2019-03-28T00:50:33.031Z,102434.95
2019-03-28T00:53:00.809Z,102442.39
2019-03-28T00:55:28.881Z,102437.53
2019-03-28T00:57:57.053Z,102438.91
2019-03-28T01:00:25.122Z,102442.73
2019-03-28T01:02:52.830Z,102444.95
2019-03-28T01:05:20.461Z,102442.82
2019-03-28T01:07:48.165Z,102441.52
2019-03-28T01:10:15.926Z,102439.75
2019-03-28T01:12:55.954Z,102436.73
2019-03-28T01:15:23.667Z,102431.94
2019-03-28T01:17:51.367Z,102444.09
2019-03-28T01:20:19.152Z,102443.25
2019-03-28T01:22:47.196Z,102440.70
2019-03-28T01:25:15.263Z,102434.97
2019-03-28T01:27:42.896Z,102437.13
2019-03-28T01:30:10.714Z,102438.91
2019-03-28T01:32:38.709Z,102439.75
2019-03-28T01:35:06.434Z,102438.91
2019-03-28T01:37:34.138Z,102442.87
2019-03-28T01:40:01.775Z,102436.67
2019-03-28T01:42:29.845Z,102438.05
2019-03-28T01:44:57.925Z,102435.41
2019-03-28T01:47:25.623Z,102434.48
2019-03-28T01:49:53.238Z,102441.00
2019-03-28T01:52:21.453Z,102433.19
2019-03-28T01:54:49.215Z,102437.08
2019-03-28T01:57:16.916Z,102437.11
2019-03-28T01:59:45.182Z,102437.52
2019-03-28T02:02:12.828Z,102435.80
2019-03-28T02:04:40.478Z,102431.88
2019-03-28T02:07:08.240Z,102431.86
2019-03-28T02:09:35.866Z,102440.55
2019-03-28T02:12:03.516Z,102439.72
2019-03-28T02:14:31.276Z,102443.17
2019-03-28T02:16:58.909Z,102448.02
2019-03-28T02:19:26.570Z,102442.80
2019-03-28T02:21:54.335Z,102439.27
2019-03-28T02:24:22.144Z,102438.41
2019-03-28T02:26:49.780Z,102444.09
2019-03-28T02:29:17.474Z,102440.60
2019-03-28T02:31:45.488Z,102447.08
2019-03-28T02:34:13.136Z,102449.34
2019-03-28T02:36:40.864Z,102452.48
2019-03-28T02:39:08.489Z,102450.22
2019-03-28T02:41:36.140Z,102452.51
2019-03-28T02:44:03.975Z,102450.29
2019-03-28T02:46:31.659Z,102451.10
2019-03-28T02:49:00.166Z,102451.96
2019-03-28T02:51:27.877Z,102451.97
2019-03-28T02:53:55.886Z,102452.91
2019-03-28T02:56:23.671Z,102453.75
2019-03-28T02:58:51.333Z,102454.61
2019-03-28T03:01:19.376Z,102450.24
2019-03-28T03:03:47.964Z,102452.80
2019-03-28T03:06:16.047Z,102457.20
2019-03-28T03:08:43.677Z,102455.49
2019-03-28T03:11:11.402Z,102448.03
2019-03-28T03:13:39.867Z,102458.53
2019-03-28T03:16:07.950Z,102451.10
2019-03-28T03:18:35.599Z,102454.17
2019-03-28T03:21:03.346Z,102454.61
2019-03-28T03:23:31.280Z,102450.67
2019-03-28T03:25:59.391Z,102450.65
2019-03-28T03:28:27.461Z,102449.77
2019-03-28T03:30:55.102Z,102454.98
2019-03-28T03:33:23.202Z,102450.55
2019-03-28T03:35:50.926Z,102451.88
2019-03-28T03:38:18.768Z,102457.59
2019-03-28T03:40:46.666Z,102459.41
2019-03-28T03:43:14.852Z,102458.03
2019-03-28T03:45:42.844Z,102459.36
2019-03-28T03:48:12.004Z,102459.77
2019-03-28T03:50:40.072Z,102466.41
2019-03-28T03:53:07.595Z,102456.17
2019-03-28T03:55:36.522Z,102463.70
2019-03-28T03:58:15.727Z,102462.40
2019-03-28T04:03:42.521Z,102466.38
2019-03-28T04:06:09.794Z,102467.66
2019-03-28T04:08:37.362Z,102474.63
2019-03-28T04:11:04.962Z,102478.19
2019-03-28T04:13:32.523Z,102475.15
2019-03-28T04:15:59.902Z,102477.82
2019-03-28T04:18:27.967Z,102479.97
2019-03-28T04:20:55.538Z,102478.97
2019-03-28T04:23:22.905Z,102480.36
2019-03-28T04:25:50.365Z,102474.28
2019-03-28T04:28:30.721Z,102483.46
2019-03-28T04:30:47.676Z,102480.41
2019-03-28T04:33:15.490Z,102484.32
2019-03-28T04:35:43.134Z,102477.39
2019-03-28T04:38:10.781Z,102485.29
2019-03-28T04:40:38.800Z,102484.00
2019-03-28T04:43:06.881Z,102477.37
2019-03-28T04:45:34.487Z,102483.05
2019-03-28T04:48:02.176Z,102489.24
2019-03-28T04:50:29.816Z,102487.78
2019-03-28T04:52:57.475Z,102499.18
2019-03-28T04:55:25.156Z,102494.86
2019-03-28T04:57:53.181Z,102500.51
2019-03-28T05:01:01.917Z,102501.82
2019-03-28T05:03:29.837Z,102502.69
2019-03-28T05:05:58.435Z,102510.11
2019-03-28T05:08:27.496Z,102506.21
2019-03-28T05:10:54.785Z,102509.27
2019-03-28T05:13:22.075Z,102514.95
2019-03-28T05:15:49.394Z,102515.81
2019-03-28T05:18:16.668Z,102508.83
2019-03-28T05:20:44.299Z,102517.14
2019-03-28T05:23:11.808Z,102511.84
2019-03-28T05:25:39.352Z,102513.11
2019-03-28T05:28:07.043Z,102514.45
2019-03-28T05:30:34.372Z,102520.15
2019-03-28T05:33:01.765Z,102521.44
2019-03-28T05:35:29.725Z,102523.70
2019-03-28T05:37:57.485Z,102522.81
2019-03-28T05:40:24.764Z,102525.88
2019-03-28T05:42:52.165Z,102529.41
2019-03-28T05:45:19.510Z,102529.73
2019-03-28T05:47:46.934Z,102528.49
2019-03-28T05:50:14.586Z,102535.08
2019-03-28T05:52:42.273Z,102535.17
2019-03-28T05:55:09.665Z,102537.34
2019-03-28T05:57:37.268Z,102541.31
2019-03-28T06:00:46.689Z,102541.61
2019-03-28T06:03:14.306Z,102547.31
2019-03-28T06:05:41.975Z,102554.74
2019-03-28T06:08:10.287Z,102548.72
2019-03-28T06:10:38.130Z,102552.78
2019-03-28T06:13:06.273Z,102553.57
2019-03-28T06:15:34.274Z,102559.75
2019-03-28T06:18:01.914Z,102561.06
2019-03-28T06:20:30.256Z,102572.42
2019-03-28T06:22:59.486Z,102572.48
2019-03-28T06:25:26.799Z,102572.55
2019-03-28T06:27:54.253Z,102582.64
2019-03-28T06:30:22.002Z,102583.84
2019-03-28T06:32:49.667Z,102588.34
2019-03-28T06:35:17.039Z,102589.61
2019-03-28T06:37:44.444Z,102590.52
2019-03-28T06:40:11.911Z,102584.83
2019-03-28T06:42:59.314Z,102586.60
2019-03-28T06:45:27.206Z,102589.75
2019-03-28T06:47:54.983Z,102596.27
2019-03-28T06:50:22.965Z,102600.63
2019-03-28T06:52:50.836Z,102599.75
2019-03-28T06:55:18.851Z,102597.65
2019-03-28T06:57:46.548Z,102602.54
2019-03-28T07:00:14.663Z,102604.99
2019-03-28T07:02:43.452Z,102612.13
2019-03-28T07:05:11.569Z,102611.68
2019-03-28T07:07:39.185Z,102615.14
2019-03-28T07:10:07.600Z,102616.84
2019-03-28T07:12:35.754Z,102619.53
2019-03-28T07:15:04.494Z,102617.34
2019-03-28T07:17:51.200Z,102624.33
2019-03-28T07:20:38.815Z,102626.50
2019-03-28T07:23:06.979Z,102629.15
2019-03-28T07:25:47.316Z,102628.68
2019-03-28T07:28:15.762Z,102628.75
2019-03-28T07:30:43.378Z,102631.42
2019-03-28T07:33:11.043Z,102630.56
2019-03-28T07:35:39.418Z,102631.91
2019-03-28T07:38:07.018Z,102627.95
2019-03-28T07:40:34.689Z,102627.91
2019-03-28T07:43:02.649Z,102629.70
2019-03-28T07:45:30.377Z,102636.80
2019-03-28T07:47:58.229Z,102632.89
2019-03-28T07:50:26.538Z,102638.16
2019-03-28T07:52:54.601Z,102644.79
2019-03-28T07:55:22.202Z,102635.95
2019-03-28T07:57:49.945Z,102639.48
2019-03-28T08:00:58.086Z,102644.28
2019-03-28T08:03:46.910Z,102640.33
2019-03-28T08:09:07.182Z,102645.35
2019-03-28T08:11:35.101Z,102649.31
2019-03-28T08:14:02.804Z,102650.28
2019-03-28T08:16:30.524Z,102648.92
2019-03-28T08:18:58.631Z,102645.95
2019-03-28T08:24:21.121Z,102642.92
2019-03-28T08:27:00.613Z,102643.39
2019-03-28T08:29:28.711Z,102649.94
2019-03-28T08:31:57.384Z,102651.28
2019-03-28T08:34:25.677Z,102660.79
2019-03-28T08:36:53.565Z,102660.73
2019-03-28T08:40:01.846Z,102668.67
2019-03-28T08:42:29.598Z,102671.73
2019-03-28T08:45:16.414Z,102666.48
2019-03-28T08:47:44.530Z,102673.94
2019-03-28T08:50:13.537Z,102680.14
2019-03-28T08:52:41.524Z,102679.25
2019-03-28T08:55:10.299Z,102673.56
2019-03-28T08:57:39.185Z,102672.81
2019-03-28T09:00:35.355Z,102680.24
2019-03-28T09:02:56.982Z,102682.22
2019-03-28T09:05:24.739Z,102683.76
2019-03-28T09:07:52.418Z,102685.52
2019-03-28T09:10:19.785Z,102689.38
2019-03-28T09:12:47.043Z,102689.44
2019-03-28T09:15:14.998Z,102685.61
2019-03-28T09:17:43.480Z,102685.59
2019-03-28T09:20:12.435Z,102684.80
2019-03-28T09:22:42.220Z,102673.27
2019-03-28T09:25:12.395Z,102678.27
2019-03-28T09:27:53.363Z,102684.84
2019-03-28T09:30:48.185Z,102675.20
2019-03-28T09:33:11.213Z,102673.03
2019-03-28T09:35:38.796Z,102673.91
2019-03-28T09:38:07.779Z,102675.29
2019-03-28T09:40:38.487Z,102680.84
2019-03-28T09:43:06.226Z,102674.72
2019-03-28T09:45:33.617Z,102680.98
2019-03-28T09:48:01.602Z,102673.93
2019-03-28T09:50:30.243Z,102674.02
2019-03-28T09:52:57.593Z,102668.50
2019-03-28T09:55:25.085Z,102665.05
2019-03-28T09:57:53.787Z,102670.24
2019-03-28T10:03:16.262Z,102667.20
2019-03-28T10:05:43.506Z,102674.19
2019-03-28T10:08:11.153Z,102671.13
2019-03-28T10:10:38.469Z,102674.30
2019-03-28T10:13:06.117Z,102675.09
2019-03-28T10:15:36.665Z,102681.64
2019-03-28T10:18:03.058Z,102677.65
2019-03-28T10:20:49.670Z,102678.85
2019-03-28T10:23:39.741Z,102683.30
2019-03-28T10:26:06.632Z,102677.63
2019-03-28T10:28:35.318Z,102681.59
2019-03-28T10:31:15.471Z,102683.73
2019-03-28T10:33:51.260Z,102687.73
2019-03-28T10:36:19.353Z,102683.91
2019-03-28T10:38:46.739Z,102689.64
2019-03-28T10:41:14.346Z,102690.11
2019-03-28T10:43:41.792Z,102682.84
2019-03-28T10:46:09.167Z,102689.42
2019-03-28T10:48:36.608Z,102690.87
2019-03-28T10:51:03.931Z,102693.81
2019-03-28T10:53:31.526Z,102692.05
2019-03-28T10:55:58.909Z,102691.33
2019-03-28T10:58:46.210Z,102691.75
2019-03-28T11:01:16.532Z,102689.11
2019-03-28T11:03:43.467Z,102691.75
2019-03-28T11:06:52.007Z,102687.02
2019-03-28T11:09:20.232Z,102690.13
2019-03-28T11:11:48.544Z,102699.78
2019-03-28T11:14:16.923Z,102691.37
2019-03-28T11:16:47.966Z,102700.22
2019-03-28T11:19:15.743Z,102699.77
2019-03-28T11:22:02.984Z,102704.58
2019-03-28T11:24:31.583Z,102705.06
2019-03-28T11:27:00.831Z,102709.91
2019-03-28T11:29:28.587Z,102706.86
2019-03-28T11:31:56.231Z,102705.21
2019-03-28T11:34:23.878Z,102711.04
2019-03-28T11:36:52.101Z,102714.57
2019-03-28T11:39:20.877Z,102722.14
2019-03-28T11:41:50.084Z,102721.66
2019-03-28T11:44:18.151Z,102715.36
2019-03-28T11:46:46.098Z,102722.09
2019-03-28T11:49:14.522Z,102722.16
2019-03-28T11:51:42.556Z,102728.31
2019-03-28T11:54:10.643Z,102725.61
2019-03-28T11:56:38.576Z,102726.95
2019-03-28T11:59:06.625Z,102727.89
2019-03-28T12:01:34.277Z,102726.92
2019-03-28T12:04:01.910Z,102719.84
2019-03-28T12:06:29.717Z,102722.48
2019-03-28T12:08:57.345Z,102726.34
2019-03-28T12:11:25.425Z,102727.25
2019-03-28T12:13:53.513Z,102724.67
2019-03-28T12:16:21.133Z,102722.92
2019-03-28T12:18:48.795Z,102724.66
2019-03-28T12:21:16.515Z,102722.47
2019-03-28T12:24:03.331Z,102718.14
2019-03-28T12:26:31.029Z,102726.13
2019-03-28T12:28:59.494Z,102728.33
2019-03-28T12:31:27.073Z,102728.80
2019-03-28T12:33:54.832Z,102731.41
2019-03-28T12:36:22.474Z,102730.11
2019-03-28T12:38:50.297Z,102731.39
2019-03-28T12:41:17.975Z,102733.02
2019-03-28T12:43:46.001Z,102728.17
2019-03-28T12:46:13.624Z,102727.27
2019-03-28T12:48:41.309Z,102738.28
2019-03-28T12:51:08.907Z,102734.75
2019-03-28T12:53:36.690Z,102732.92
2019-03-28T12:56:04.436Z,102737.36
2019-03-28T12:58:32.093Z,102735.56
2019-03-28T13:01:00.125Z,102733.79
2019-03-28T13:03:31.256Z,102732.43
2019-03-28T13:05:57.106Z,102738.17
2019-03-28T13:08:25.392Z,102735.13
2019-03-28T13:10:53.602Z,102740.76
2019-03-28T13:13:41.932Z,102736.89
2019-03-28T13:16:09.701Z,102734.34
2019-03-28T13:18:37.401Z,102746.70
2019-03-28T13:21:13.217Z,102747.97
2019-03-28T13:23:34.866Z,102747.11
2019-03-28T13:26:02.731Z,102752.43
2019-03-28T13:28:30.007Z,102754.16
2019-03-28T13:30:57.647Z,102751.14
2019-03-28T13:33:25.513Z,102740.16
2019-03-28T13:35:52.784Z,102743.48
2019-03-28T13:38:20.413Z,102744.92
2019-03-28T13:40:48.395Z,102751.48
2019-03-28T13:43:16.361Z,102756.34
2019-03-28T13:45:43.804Z,102752.84
2019-03-28T13:48:13.659Z,102743.59
2019-03-28T13:50:40.576Z,102744.08
2019-03-28T13:53:09.015Z,102741.87
2019-03-28T13:55:36.856Z,102741.35
2019-03-28T13:58:04.514Z,102736.95
2019-03-28T14:00:33.333Z,102740.03
2019-03-28T14:03:01.263Z,102733.94
2019-03-28T14:05:29.089Z,102737.45
2019-03-28T14:07:57.630Z,102730.88
2019-03-28T14:10:25.269Z,102736.58
2019-03-28T14:12:52.906Z,102730.84
2019-03-28T14:15:20.648Z,102729.23
2019-03-28T14:17:48.301Z,102728.73
2019-03-28T14:20:16.041Z,102728.84
2019-03-28T14:22:43.905Z,102732.39
2019-03-28T14:25:11.685Z,102729.34
2019-03-28T14:27:39.526Z,102737.23
2019-03-28T14:33:11.025Z,102739.98
2019-03-28T14:35:32.518Z,102740.80
2019-03-28T14:38:00.213Z,102746.55
2019-03-28T14:40:28.616Z,102743.89
2019-03-28T14:42:58.694Z,102746.05
2019-03-28T14:45:26.336Z,102749.47
2019-03-28T14:47:54.033Z,102749.45
2019-03-28T14:51:03.409Z,102746.81
2019-03-28T14:53:31.608Z,102751.14
2019-03-28T14:56:39.811Z,102750.24
2019-03-28T14:59:48.366Z,102742.65
2019-03-28T15:02:18.886Z,102749.23
2019-03-28T15:04:46.544Z,102738.25
2019-03-28T15:07:14.399Z,102743.44
2019-03-28T15:09:42.516Z,102742.96
2019-03-28T15:12:10.567Z,102739.94
2019-03-28T15:14:38.363Z,102743.10
2019-03-28T15:17:06.449Z,102735.66
2019-03-28T15:19:34.424Z,102735.27
2019-03-28T15:22:02.368Z,102733.51
2019-03-28T15:24:31.014Z,102734.96
2019-03-28T15:27:40.479Z,102724.45
2019-03-28T15:30:48.851Z,102729.31
2019-03-28T15:33:17.603Z,102729.33
2019-03-28T15:35:46.114Z,102730.96
2019-03-28T15:38:14.111Z,102726.11
2019-03-28T15:40:41.983Z,102719.92
2019-03-28T15:43:09.648Z,102726.44
2019-03-28T15:45:37.815Z,102724.14
2019-03-28T15:48:05.984Z,102731.17
2019-03-28T15:50:33.618Z,102724.45
2019-03-28T15:53:01.217Z,102728.02
2019-03-28T15:55:29.197Z,102729.24
2019-03-28T15:57:56.810Z,102737.57
2019-03-28T16:00:24.401Z,102739.68
2019-03-28T16:02:52.495Z,102744.47
2019-03-28T16:05:20.520Z,102744.99
2019-03-28T16:07:48.212Z,102740.59
2019-03-28T16:10:36.533Z,102742.70
2019-03-28T16:13:04.677Z,102748.03
2019-03-28T16:15:39.746Z,102752.77
2019-03-28T16:18:07.138Z,102760.23
2019-03-28T16:20:34.537Z,102764.07
2019-03-28T16:23:01.842Z,102763.62
2019-03-28T16:25:29.499Z,102759.27
2019-03-28T16:27:57.114Z,102760.91
2019-03-28T16:30:44.220Z,102763.50
2019-03-28T16:33:11.869Z,102759.54
2019-03-28T16:35:39.538Z,102762.13
2019-03-28T16:38:07.884Z,102762.14
2019-03-28T16:40:36.031Z,102759.57
2019-03-28T16:43:03.783Z,102758.13
2019-03-28T16:45:31.447Z,102768.34
2019-03-28T16:47:59.050Z,102766.97
2019-03-28T16:50:27.581Z,102767.96
2019-03-28T16:52:55.342Z,102775.78
2019-03-28T16:55:26.449Z,102775.27
2019-03-28T16:57:52.270Z,102769.70
2019-03-28T17:03:14.564Z,102766.09
2019-03-28T17:05:42.027Z,102770.84
2019-03-28T17:08:09.432Z,102764.28
2019-03-28T17:10:56.113Z,102761.67
2019-03-28T17:13:23.437Z,102762.63
2019-03-28T17:15:51.402Z,102770.89
2019-03-28T17:18:19.448Z,102774.89
2019-03-28T17:20:46.878Z,102774.80
2019-03-28T17:23:14.246Z,102773.03
2019-03-28T17:25:41.914Z,102776.02
2019-03-28T17:28:09.593Z,102776.98
2019-03-28T17:30:36.877Z,102780.88
2019-03-28T17:33:04.299Z,102780.88
2019-03-28T17:35:33.793Z,102782.10
2019-03-28T17:38:01.175Z,102787.81
2019-03-28T17:40:28.819Z,102784.80
2019-03-28T17:42:56.152Z,102783.03
2019-03-28T17:45:24.199Z,102786.94
2019-03-28T17:47:52.167Z,102794.42
2019-03-28T17:50:19.637Z,102792.64
2019-03-28T17:52:47.266Z,102799.59
2019-03-28T17:55:14.808Z,102807.11
2019-03-28T17:57:42.323Z,102805.38
2019-03-28T18:00:09.940Z,102813.27
2019-03-28T18:02:38.275Z,102817.65
2019-03-28T18:05:09.765Z,102821.97
2019-03-28T18:07:35.911Z,102817.00
2019-03-28T18:10:03.775Z,102815.33
2019-03-28T18:12:31.245Z,102824.09
2019-03-28T18:14:58.535Z,102815.33
2019-03-28T18:17:45.208Z,102820.20
2019-03-28T18:20:12.583Z,102825.00
2019-03-28T18:22:40.275Z,102819.25
2019-03-28T18:25:07.953Z,102816.14
2019-03-28T18:27:35.780Z,102815.23
2019-03-28T18:30:05.304Z,102819.13
2019-03-28T18:32:33.944Z,102822.61
2019-03-28T18:35:20.762Z,102823.19
2019-03-28T18:37:48.983Z,102829.25
2019-03-28T18:40:16.882Z,102824.86
2019-03-28T18:43:06.354Z,102832.23
2019-03-28T18:45:46.310Z,102832.23
2019-03-28T18:48:27.042Z,102830.44
2019-03-28T18:50:43.461Z,102834.81
2019-03-28T18:53:11.109Z,102835.27
2019-03-28T18:55:38.770Z,102837.42
2019-03-28T18:58:06.386Z,102832.19
2019-03-28T19:00:34.601Z,102830.82
2019-03-28T19:03:02.721Z,102828.16
2019-03-28T19:05:30.855Z,102839.11
2019-03-28T19:07:58.467Z,102838.30
2019-03-28T19:10:26.623Z,102841.36
2019-03-28T19:12:54.243Z,102839.70
2019-03-28T19:15:21.892Z,102845.81
2019-03-28T19:17:50.027Z,102846.19
2019-03-28T19:20:17.679Z,102851.81
2019-03-28T19:22:45.693Z,102845.76
2019-03-28T19:25:13.993Z,102854.45
2019-03-28T19:27:41.707Z,102854.39
2019-03-28T19:30:49.936Z,102853.53
2019-03-28T19:33:18.296Z,102855.77
2019-03-28T19:35:45.698Z,102851.36
2019-03-28T19:38:13.431Z,102851.42
2019-03-28T19:40:41.061Z,102856.27
2019-03-28T19:43:19.837Z,102863.35
2019-03-28T19:45:38.559Z,102860.67
2019-03-28T19:48:06.718Z,102862.95
2019-03-28T19:50:34.691Z,102865.01
2019-03-28T19:53:21.373Z,102868.23
2019-03-28T19:55:48.624Z,102872.89
2019-03-28T19:58:15.882Z,102866.76
2019-03-28T20:00:44.025Z,102869.89
2019-03-28T20:03:12.923Z,102874.23
2019-03-28T20:05:47.654Z,102877.24
2019-03-28T20:08:16.112Z,102873.78
2019-03-28T20:10:38.982Z,102871.53
2019-03-28T20:13:06.412Z,102877.67
2019-03-28T20:15:33.995Z,102874.72
2019-03-28T20:18:03.000Z,102882.64
2019-03-28T20:20:31.063Z,102876.09
2019-03-28T20:22:59.313Z,102876.09
2019-03-28T20:25:26.853Z,102875.20
2019-03-28T20:27:54.410Z,102880.78
2019-03-28T20:31:02.952Z,102878.18
2019-03-28T20:33:30.534Z,102869.36
2019-03-28T20:36:18.650Z,102872.47
2019-03-28T20:38:28.025Z,102870.73
2019-03-28T20:40:58.362Z,102868.50
2019-03-28T20:43:24.825Z,102868.91
2019-03-28T20:45:52.632Z,102875.93
2019-03-28T20:48:20.084Z,102872.78
2019-03-28T20:51:03.484Z,102867.53
2019-03-28T20:53:32.040Z,102869.76
2019-03-28T20:55:59.874Z,102870.70
2019-03-28T20:58:28.736Z,102870.59
2019-03-28T21:00:57.582Z,102872.44
2019-03-28T21:03:25.232Z,102873.73
2019-03-28T21:05:52.981Z,102876.30
2019-03-28T21:08:20.838Z,102870.16
2019-03-28T21:10:48.558Z,102872.33
2019-03-28T21:13:16.607Z,102869.19
2019-03-28T21:15:44.375Z,102866.51
2019-03-28T21:18:13.786Z,102875.84
2019-03-28T21:20:41.103Z,102870.56
2019-03-28T21:23:08.367Z,102871.91
2019-03-28T21:25:35.624Z,102867.91
2019-03-28T21:28:03.147Z,102868.77
2019-03-28T21:30:30.407Z,102871.79
2019-03-28T21:32:57.928Z,102874.42
2019-03-28T21:35:26.907Z,102871.84
2019-03-28T21:37:54.624Z,102870.87
2019-03-28T21:40:21.878Z,102859.88
2019-03-28T21:42:49.572Z,102863.36
2019-03-28T21:45:16.940Z,102867.39
2019-03-28T21:47:44.339Z,102871.22
2019-03-28T21:50:12.039Z,102866.94
2019-03-28T21:52:52.007Z,102869.05
2019-03-28T21:55:19.707Z,102871.77
2019-03-28T21:57:47.066Z,102869.45
2019-03-28T22:00:35.915Z,102868.88
2019-03-28T22:03:03.507Z,102862.70
2019-03-28T22:05:31.064Z,102865.36
2019-03-28T22:07:58.910Z,102867.11
2019-03-28T22:10:26.448Z,102864.91
2019-03-28T22:12:53.716Z,102867.22
2019-03-28T22:15:21.034Z,102870.30
2019-03-28T22:17:48.959Z,102867.16
2019-03-28T22:20:16.125Z,102870.30
2019-03-28T22:22:43.733Z,102868.08
2019-03-28T22:25:11.098Z,102861.02
2019-03-28T22:27:38.364Z,102866.27
2019-03-28T22:30:25.332Z,102864.08
2019-03-28T22:32:52.591Z,102861.11
2019-03-28T22:35:20.135Z,102858.51
2019-03-28T22:38:06.777Z,102862.51
2019-03-28T22:40:34.631Z,102855.94
2019-03-28T22:43:01.936Z,102860.70
2019-03-28T22:45:29.675Z,102866.37
2019-03-28T22:48:10.184Z,102862.79
2019-03-28T22:50:26.502Z,102864.16
2019-03-28T22:52:53.860Z,102866.37
2019-03-28T22:55:21.178Z,102857.91
2019-03-28T22:57:48.482Z,102861.05
2019-03-28T23:00:16.702Z,102859.22
2019-03-28T23:02:44.071Z,102855.86
2019-03-28T23:05:11.851Z,102854.97
2019-03-28T23:07:39.311Z,102860.53
2019-03-28T23:10:06.953Z,102867.13
2019-03-28T23:12:34.835Z,102872.05
2019-03-28T23:15:04.959Z,102865.78
2019-03-28T23:17:32.211Z,102864.59
2019-03-28T23:19:59.756Z,102877.27
2019-03-28T23:22:27.774Z,102871.50
2019-03-28T23:24:55.133Z,102876.72
2019-03-28T23:27:22.707Z,102881.55
2019-03-28T23:29:50.310Z,102878.50
2019-03-28T23:32:18.240Z,102878.92
2019-03-28T23:34:45.808Z,102886.80
2019-03-28T23:37:24.149Z,102881.55
2019-03-28T23:39:42.955Z,102882.44
2019-03-28T23:42:10.211Z,102880.66
2019-03-28T23:44:37.646Z,102876.72
2019-03-28T23:47:04.910Z,102877.91
2019-03-28T23:49:32.240Z,102878.49
2019-03-28T23:51:59.553Z,102876.66
2019-03-28T23:54:27.174Z,102880.23
2019-03-28T23:57:08.822Z,102879.35
2019-03-28T23:59:36.449Z,102881.23
